createdAt,value
2023-05-19T00:02:01.158Z,74.40
2023-05-19T00:04:29.686Z,73.50
2023-05-19T00:06:58.252Z,73.50
2023-05-19T00:09:28.270Z,73.50
2023-05-19T00:11:57.662Z,73.50
2023-05-19T00:14:25.970Z,73.50
2023-05-19T00:16:55.987Z,74.30
2023-05-19T00:19:24.511Z,73.60
2023-05-19T00:21:52.854Z,73.50
2023-05-19T00:24:20.785Z,73.30
2023-05-19T00:26:50.246Z,73.30
2023-05-19T00:29:19.119Z,73.40
2023-05-19T00:31:47.677Z,73.20
2023-05-19T00:34:15.738Z,73.20
2023-05-19T00:36:43.720Z,73.30
2023-05-19T00:39:15.102Z,73.40
2023-05-19T00:41:43.074Z,73.40
2023-05-19T00:44:12.369Z,73.40
2023-05-19T00:46:41.404Z,73.30
2023-05-19T00:49:09.373Z,73.30
2023-05-19T00:51:37.308Z,73.30
2023-05-19T00:54:05.380Z,73.20
2023-05-19T00:56:33.757Z,73.20
2023-05-19T00:59:01.752Z,73.20
2023-05-19T01:01:32.316Z,73.20
2023-05-19T01:04:00.593Z,73.30
2023-05-19T01:06:29.564Z,73.20
2023-05-19T01:08:58.330Z,73.20
2023-05-19T01:11:26.256Z,73.20
2023-05-19T01:13:54.199Z,73.10
2023-05-19T01:16:25.889Z,73.20
2023-05-19T01:18:57.952Z,73.20
2023-05-19T01:21:44.476Z,73.20
2023-05-19T01:24:35.425Z,73.40
2023-05-19T01:27:16.120Z,73.20
2023-05-19T01:29:47.543Z,73.10
2023-05-19T01:32:16.988Z,73.00
2023-05-19T01:34:46.036Z,73.00
2023-05-19T01:37:14.298Z,73.10
2023-05-19T01:39:42.338Z,73.10
2023-05-19T01:42:10.336Z,72.90
2023-05-19T01:44:38.258Z,73.10
2023-05-19T01:47:07.074Z,73.00
2023-05-19T01:49:36.360Z,73.00
2023-05-19T01:52:05.648Z,73.10
2023-05-19T01:54:33.765Z,73.00
2023-05-19T01:57:11.249Z,73.00
2023-05-19T01:59:45.333Z,73.10
2023-05-19T02:02:19.637Z,73.00
2023-05-19T02:04:52.369Z,72.90
2023-05-19T02:07:24.598Z,72.90
2023-05-19T02:09:54.285Z,73.00
2023-05-19T02:12:26.823Z,72.90
2023-05-19T02:14:59.633Z,72.90
2023-05-19T02:17:28.062Z,72.80
2023-05-19T02:19:57.602Z,72.90
2023-05-19T02:22:25.575Z,72.90
2023-05-19T02:24:53.516Z,72.80
2023-05-19T02:27:21.675Z,72.90
2023-05-19T02:29:49.688Z,72.80
2023-05-19T02:32:17.795Z,72.70
2023-05-19T02:34:46.218Z,72.90
2023-05-19T02:37:15.752Z,72.80
2023-05-19T02:39:44.278Z,72.70
2023-05-19T02:42:12.346Z,72.70
2023-05-19T02:44:40.326Z,72.90
2023-05-19T02:47:08.308Z,72.70
2023-05-19T02:49:36.799Z,72.70
2023-05-19T02:52:05.114Z,72.70
2023-05-19T02:54:34.807Z,72.60
2023-05-19T02:57:02.884Z,72.60
2023-05-19T02:59:31.298Z,72.60
2023-05-19T03:02:00.900Z,72.60
2023-05-19T03:04:29.387Z,72.60
2023-05-19T03:06:57.625Z,72.70
2023-05-19T03:09:25.648Z,72.70
2023-05-19T03:11:55.037Z,72.60
2023-05-19T03:14:24.701Z,72.60
2023-05-19T03:16:53.264Z,72.50
2023-05-19T03:19:21.442Z,72.60
2023-05-19T03:21:49.663Z,72.40
2023-05-19T03:24:18.030Z,72.60
2023-05-19T03:26:46.438Z,72.50
2023-05-19T03:29:16.433Z,72.60
2023-05-19T03:31:44.519Z,72.50
2023-05-19T03:34:13.761Z,72.60
2023-05-19T03:36:41.804Z,72.70
2023-05-19T03:39:14.955Z,72.60
2023-05-19T03:41:43.121Z,72.50
2023-05-19T03:44:11.273Z,72.60
2023-05-19T03:46:40.753Z,72.50
2023-05-19T03:49:24.688Z,72.50
2023-05-19T03:52:18.786Z,72.40
2023-05-19T03:54:57.743Z,72.50
2023-05-19T03:57:25.762Z,72.60
2023-05-19T03:59:54.851Z,72.50
2023-05-19T04:02:24.211Z,73.50
2023-05-19T04:04:53.758Z,72.40
2023-05-19T04:07:21.874Z,72.50
2023-05-19T04:09:50.098Z,72.50
2023-05-19T04:12:18.160Z,72.50
2023-05-19T04:14:46.660Z,72.40
2023-05-19T04:17:14.594Z,72.40
2023-05-19T04:19:43.894Z,72.40
2023-05-19T04:22:11.843Z,72.30
2023-05-19T04:24:39.833Z,72.50
2023-05-19T04:27:12.051Z,72.50
2023-05-19T04:29:41.041Z,72.50
2023-05-19T04:32:10.680Z,72.40
2023-05-19T04:34:40.407Z,72.50
2023-05-19T04:37:11.132Z,72.30
2023-05-19T04:39:43.004Z,72.30
2023-05-19T04:42:11.649Z,72.30
2023-05-19T04:44:41.970Z,72.30
2023-05-19T04:47:10.321Z,72.20
2023-05-19T04:49:39.502Z,72.40
2023-05-19T04:52:10.771Z,72.30
2023-05-19T04:54:41.838Z,72.30
2023-05-19T04:57:12.633Z,72.30
2023-05-19T04:59:41.196Z,72.30
2023-05-19T05:02:09.794Z,72.40
2023-05-19T05:04:42.468Z,72.30
2023-05-19T05:07:10.663Z,72.70
2023-05-19T05:09:41.304Z,72.50
2023-05-19T05:12:10.843Z,72.60
2023-05-19T05:14:41.024Z,73.10
2023-05-19T05:17:12.720Z,73.00
2023-05-19T05:19:41.266Z,73.00
2023-05-19T05:22:09.865Z,73.00
2023-05-19T05:24:42.685Z,73.20
2023-05-19T05:27:10.711Z,73.20
2023-05-19T05:29:38.962Z,73.20
2023-05-19T05:32:09.015Z,73.10
2023-05-19T05:34:38.140Z,73.20
2023-05-19T05:37:06.577Z,73.10
2023-05-19T05:39:35.546Z,73.20
2023-05-19T05:42:05.225Z,73.30
2023-05-19T05:44:35.718Z,73.30
2023-05-19T05:47:06.032Z,73.30
2023-05-19T05:49:36.545Z,73.20
2023-05-19T05:52:06.301Z,73.30
2023-05-19T05:54:42.132Z,73.20
2023-05-19T05:57:12.850Z,73.00
2023-05-19T05:59:41.848Z,72.90
2023-05-19T06:02:09.836Z,72.90
2023-05-19T06:04:37.899Z,73.00
2023-05-19T06:07:07.488Z,73.00
2023-05-19T06:09:38.178Z,73.10
2023-05-19T06:12:08.006Z,73.10
2023-05-19T06:14:42.557Z,73.00
2023-05-19T06:17:11.795Z,73.00
2023-05-19T06:19:40.035Z,73.00
2023-05-19T06:22:08.252Z,73.20
2023-05-19T06:24:38.672Z,73.10
2023-05-19T06:27:07.648Z,73.10
2023-05-19T06:29:36.313Z,73.10
2023-05-19T06:32:08.677Z,73.10
2023-05-19T06:34:38.265Z,72.80
2023-05-19T06:37:06.275Z,73.00
2023-05-19T06:39:35.183Z,73.10
2023-05-19T06:42:03.210Z,73.10
2023-05-19T06:44:50.090Z,73.00
2023-05-19T06:47:19.524Z,73.00
2023-05-19T06:49:50.642Z,73.00
2023-05-19T06:52:18.731Z,72.90
2023-05-19T06:54:46.899Z,72.90
2023-05-19T06:57:14.873Z,72.90
2023-05-19T06:59:43.526Z,72.90
2023-05-19T07:02:11.537Z,72.80
2023-05-19T07:04:41.060Z,72.80
2023-05-19T07:07:09.622Z,72.80
2023-05-19T07:09:38.173Z,72.70
2023-05-19T07:12:06.731Z,72.60
2023-05-19T07:14:36.421Z,72.60
2023-05-19T07:17:04.877Z,72.60
2023-05-19T07:19:34.147Z,72.50
2023-05-19T07:22:03.557Z,72.50
2023-05-19T07:24:31.636Z,72.40
2023-05-19T07:26:59.612Z,72.40
2023-05-19T07:29:27.563Z,72.30
2023-05-19T07:31:58.085Z,72.20
2023-05-19T07:34:26.428Z,72.20
2023-05-19T07:36:54.412Z,72.20
2023-05-19T07:39:26.322Z,72.20
2023-05-19T07:41:55.710Z,72.20
2023-05-19T07:44:23.747Z,72.20
2023-05-19T07:46:51.703Z,72.30
2023-05-19T07:49:19.673Z,72.30
2023-05-19T07:51:47.647Z,72.50
2023-05-19T07:54:15.624Z,72.40
2023-05-19T07:56:44.952Z,73.30
2023-05-19T07:59:13.308Z,72.30
2023-05-19T08:01:41.386Z,72.30
2023-05-19T08:04:11.166Z,72.30
2023-05-19T08:06:42.847Z,72.20
2023-05-19T08:09:10.963Z,72.20
2023-05-19T08:11:39.032Z,72.20
2023-05-19T08:14:08.480Z,72.20
2023-05-19T08:16:36.511Z,72.20
2023-05-19T08:19:05.462Z,72.10
2023-05-19T08:21:34.585Z,72.10
2023-05-19T08:24:02.551Z,72.10
2023-05-19T08:26:30.670Z,72.10
2023-05-19T08:28:58.652Z,72.00
2023-05-19T08:31:28.139Z,72.00
2023-05-19T08:33:56.177Z,72.00
2023-05-19T08:36:24.854Z,71.90
2023-05-19T08:38:52.881Z,71.90
2023-05-19T08:41:21.637Z,71.80
2023-05-19T08:43:50.000Z,71.80
2023-05-19T08:46:18.363Z,71.80
2023-05-19T08:48:47.691Z,71.80
2023-05-19T08:51:19.164Z,71.80
2023-05-19T08:53:49.564Z,71.80
2023-05-19T08:56:19.132Z,71.80
2023-05-19T08:58:47.714Z,71.70
2023-05-19T09:01:16.809Z,71.70
2023-05-19T09:03:45.198Z,71.70
2023-05-19T09:06:14.623Z,71.70
2023-05-19T09:08:42.838Z,71.70
2023-05-19T09:11:10.877Z,71.60
2023-05-19T09:13:38.840Z,71.70
2023-05-19T09:16:08.149Z,71.60
2023-05-19T09:18:38.723Z,71.60
2023-05-19T09:21:07.523Z,71.60
2023-05-19T09:23:36.880Z,71.50
2023-05-19T09:26:07.100Z,71.50
2023-05-19T09:28:35.534Z,71.40
2023-05-19T09:31:03.776Z,71.50
2023-05-19T09:33:32.080Z,71.40
2023-05-19T09:36:00.031Z,71.40
2023-05-19T09:38:28.349Z,71.30
2023-05-19T09:40:58.931Z,71.30
2023-05-19T09:43:28.928Z,72.20
2023-05-19T09:46:00.129Z,71.30
2023-05-19T09:48:28.612Z,71.20
2023-05-19T09:50:57.206Z,71.30
2023-05-19T09:53:26.101Z,71.30
2023-05-19T09:55:58.742Z,71.20
2023-05-19T09:58:27.074Z,72.20
2023-05-19T10:00:55.417Z,71.10
2023-05-19T10:03:23.883Z,71.10
2023-05-19T10:05:52.106Z,71.20
2023-05-19T10:08:20.037Z,71.10
2023-05-19T10:10:48.159Z,71.10
2023-05-19T10:13:17.512Z,71.00
2023-05-19T10:15:57.167Z,71.00
2023-05-19T10:18:27.018Z,71.00
2023-05-19T10:20:55.182Z,71.00
2023-05-19T10:23:23.579Z,70.90
2023-05-19T10:25:52.021Z,70.90
2023-05-19T10:28:23.582Z,70.90
2023-05-19T10:30:52.105Z,70.80
2023-05-19T10:33:21.024Z,70.80
2023-05-19T10:36:11.043Z,70.70
2023-05-19T10:38:43.122Z,70.90
2023-05-19T10:41:28.048Z,70.80
2023-05-19T10:44:04.731Z,70.70
2023-05-19T10:49:24.595Z,70.60
2023-05-19T10:51:53.335Z,70.50
2023-05-19T10:54:40.735Z,70.60
2023-05-19T10:57:13.055Z,70.70
2023-05-19T10:59:48.392Z,70.50
2023-05-19T11:02:43.107Z,70.50
2023-05-19T11:05:12.904Z,70.60
2023-05-19T11:07:43.324Z,70.50
2023-05-19T11:10:11.731Z,70.50
2023-05-19T11:12:43.905Z,70.50
2023-05-19T11:15:15.511Z,70.40
2023-05-19T11:17:55.850Z,70.40
2023-05-19T11:20:57.985Z,70.40
2023-05-19T11:23:26.895Z,70.30
2023-05-19T11:25:54.890Z,70.20
2023-05-19T11:28:26.031Z,70.30
2023-05-19T11:30:57.470Z,70.30
2023-05-19T11:33:27.090Z,70.30
2023-05-19T11:35:57.910Z,70.30
2023-05-19T11:38:26.014Z,70.40
2023-05-19T11:40:54.234Z,70.30
2023-05-19T11:43:24.145Z,70.30
2023-05-19T11:45:52.291Z,70.30
2023-05-19T11:48:23.666Z,70.30
2023-05-19T11:50:52.454Z,70.20
2023-05-19T11:53:21.054Z,70.20
2023-05-19T11:55:49.636Z,70.20
2023-05-19T11:58:18.177Z,70.20
2023-05-19T12:00:47.694Z,70.10
2023-05-19T12:03:17.357Z,70.10
2023-05-19T12:05:47.842Z,70.10
2023-05-19T12:08:17.206Z,71.00
2023-05-19T12:10:45.377Z,70.10
2023-05-19T12:13:13.408Z,70.00
2023-05-19T12:15:41.412Z,69.90
2023-05-19T12:18:09.632Z,69.90
2023-05-19T12:20:37.736Z,69.90
2023-05-19T12:23:07.497Z,69.80
2023-05-19T12:25:35.758Z,69.80
2023-05-19T12:28:06.639Z,69.80
2023-05-19T12:30:38.951Z,69.80
2023-05-19T12:36:04.058Z,69.70
2023-05-19T12:38:33.391Z,69.60
2023-05-19T12:41:01.351Z,69.70
2023-05-19T12:43:29.356Z,69.70
2023-05-19T12:45:57.346Z,69.70
2023-05-19T12:48:25.414Z,69.70
2023-05-19T12:50:54.456Z,69.80
2023-05-19T12:53:22.420Z,69.80
2023-05-19T12:55:53.799Z,69.80
2023-05-19T12:58:22.776Z,69.90
2023-05-19T13:00:51.815Z,69.70
2023-05-19T13:03:20.659Z,69.60
2023-05-19T13:05:50.348Z,69.50
2023-05-19T13:08:19.807Z,69.40
2023-05-19T13:10:49.063Z,69.50
2023-05-19T13:13:18.648Z,69.50
2023-05-19T13:15:48.977Z,69.50
2023-05-19T13:18:17.470Z,69.40
2023-05-19T13:20:46.416Z,69.30
2023-05-19T13:23:14.750Z,69.30
2023-05-19T13:25:42.719Z,69.30
2023-05-19T13:28:10.931Z,69.20
2023-05-19T13:30:41.595Z,69.20
2023-05-19T13:33:09.685Z,69.20
2023-05-19T13:35:38.250Z,69.20
2023-05-19T13:38:06.800Z,69.20
2023-05-19T13:40:35.569Z,69.10
2023-05-19T13:43:03.832Z,69.10
2023-05-19T13:45:31.931Z,69.10
2023-05-19T13:48:03.590Z,69.10
2023-05-19T13:50:31.821Z,69.20
2023-05-19T13:52:59.855Z,68.90
2023-05-19T13:55:28.210Z,69.00
2023-05-19T13:57:56.266Z,70.00
2023-05-19T14:00:24.272Z,69.00
2023-05-19T14:02:52.742Z,69.00
2023-05-19T14:05:22.292Z,69.00
2023-05-19T14:07:50.357Z,68.90
2023-05-19T14:10:18.428Z,68.90
2023-05-19T14:13:12.385Z,68.90
2023-05-19T14:15:37.768Z,68.80
2023-05-19T14:18:07.170Z,68.90
2023-05-19T14:20:36.812Z,68.90
2023-05-19T14:23:04.996Z,69.00
2023-05-19T14:25:33.014Z,69.10
2023-05-19T14:28:01.191Z,69.40
2023-05-19T14:30:29.277Z,69.60
2023-05-19T14:32:57.501Z,69.70
2023-05-19T14:35:25.947Z,69.80
2023-05-19T14:37:55.287Z,69.90
2023-05-19T14:40:23.287Z,69.60
2023-05-19T14:42:51.346Z,69.90
2023-05-19T14:45:19.481Z,70.00
2023-05-19T14:47:48.054Z,70.00
2023-05-19T14:50:16.250Z,70.00
2023-05-19T14:52:44.419Z,70.10
2023-05-19T14:55:13.744Z,70.00
2023-05-19T14:57:41.677Z,70.00
2023-05-19T15:00:10.874Z,70.00
2023-05-19T15:02:38.964Z,70.10
2023-05-19T15:05:07.256Z,70.10
2023-05-19T15:07:35.550Z,70.10
2023-05-19T15:10:04.216Z,70.20
2023-05-19T15:12:33.561Z,70.10
2023-05-19T15:15:01.499Z,70.10
2023-05-19T15:17:29.678Z,70.10
2023-05-19T15:19:57.646Z,70.10
2023-05-19T15:22:25.562Z,70.30
2023-05-19T15:24:53.561Z,70.30
2023-05-19T15:27:21.976Z,70.20
2023-05-19T15:29:51.381Z,70.20
2023-05-19T15:32:20.203Z,70.30
2023-05-19T15:34:48.249Z,70.20
2023-05-19T15:37:16.507Z,70.10
2023-05-19T15:39:44.510Z,70.00
2023-05-19T15:42:12.446Z,70.20
2023-05-19T15:44:40.451Z,70.20
2023-05-19T15:47:09.768Z,70.20
2023-05-19T15:49:37.786Z,70.20
2023-05-19T15:52:06.180Z,70.20
2023-05-19T15:54:34.160Z,70.20
2023-05-19T15:57:02.152Z,70.20
2023-05-19T15:59:30.136Z,70.20
2023-05-19T16:01:58.211Z,70.10
2023-05-19T16:04:27.558Z,70.20
2023-05-19T16:06:55.627Z,70.10
2023-05-19T16:09:23.736Z,70.10
2023-05-19T16:11:51.692Z,70.10
2023-05-19T16:14:19.634Z,70.10
2023-05-19T16:16:47.663Z,70.10
2023-05-19T16:19:15.850Z,70.10
2023-05-19T16:21:45.197Z,69.90
2023-05-19T16:24:13.131Z,70.10
2023-05-19T16:26:41.132Z,70.10
2023-05-19T16:29:09.098Z,70.20
2023-05-19T16:31:37.171Z,70.20
2023-05-19T16:34:05.197Z,70.20
2023-05-19T16:36:33.155Z,70.20
2023-05-19T16:39:02.548Z,70.20
2023-05-19T16:41:30.521Z,70.20
2023-05-19T16:43:58.471Z,70.20
2023-05-19T16:46:27.402Z,70.20
2023-05-19T16:48:57.051Z,69.90
2023-05-19T16:51:25.101Z,70.10
2023-05-19T16:53:53.197Z,69.80
2023-05-19T16:56:22.915Z,69.80
2023-05-19T16:58:51.046Z,70.00
2023-05-19T17:01:19.103Z,70.10
2023-05-19T17:03:48.215Z,70.10
2023-05-19T17:06:16.183Z,70.10
2023-05-19T17:08:44.208Z,71.10
2023-05-19T17:11:13.409Z,70.10
2023-05-19T17:13:43.854Z,70.10
2023-05-19T17:16:11.818Z,70.20
2023-05-19T17:18:39.907Z,70.10
2023-05-19T17:21:07.880Z,70.10
2023-05-19T17:23:35.867Z,70.00
2023-05-19T17:26:03.863Z,70.00
2023-05-19T17:28:31.809Z,70.00
2023-05-19T17:31:01.459Z,70.10
2023-05-19T17:33:29.489Z,70.10
2023-05-19T17:35:57.599Z,70.10
2023-05-19T17:38:25.596Z,70.10
2023-05-19T17:40:53.719Z,70.10
2023-05-19T17:43:21.718Z,70.10
2023-05-19T17:45:49.698Z,70.10
2023-05-19T17:48:19.035Z,70.10
2023-05-19T17:50:47.871Z,70.10
2023-05-19T17:53:16.215Z,70.10
2023-05-19T17:55:45.409Z,70.10
2023-05-19T17:58:13.867Z,70.10
2023-05-19T18:00:42.243Z,70.10
2023-05-19T18:03:11.318Z,70.10
2023-05-19T18:05:43.181Z,70.20
2023-05-19T18:08:11.356Z,69.90
2023-05-19T18:10:40.890Z,70.10
2023-05-19T18:13:09.826Z,70.00
2023-05-19T18:15:38.191Z,70.00
2023-05-19T18:18:07.690Z,69.90
2023-05-19T18:20:37.781Z,69.80
2023-05-19T18:23:07.313Z,69.90
2023-05-19T18:25:36.381Z,69.80
2023-05-19T18:28:04.460Z,69.80
2023-05-19T18:30:32.588Z,69.90
2023-05-19T18:33:03.388Z,69.80
2023-05-19T18:35:31.434Z,69.80
2023-05-19T18:37:59.780Z,69.70
2023-05-19T18:40:29.170Z,69.70
2023-05-19T18:42:57.171Z,69.60
2023-05-19T18:45:25.164Z,69.70
2023-05-19T18:47:53.197Z,69.60
2023-05-19T18:50:21.584Z,69.70
2023-05-19T18:52:49.554Z,69.60
2023-05-19T18:55:17.585Z,69.60
2023-05-19T18:57:47.049Z,69.60
2023-05-19T19:00:15.849Z,69.60
2023-05-19T19:02:44.007Z,69.50
2023-05-19T19:05:13.711Z,69.50
2023-05-19T19:07:42.112Z,69.40
2023-05-19T19:10:10.639Z,69.40
2023-05-19T19:12:38.918Z,69.20
2023-05-19T19:15:09.575Z,69.20
2023-05-19T19:17:37.726Z,69.30
2023-05-19T19:20:06.556Z,69.20
2023-05-19T19:22:34.718Z,69.30
2023-05-19T19:25:03.226Z,69.20
2023-05-19T19:27:35.409Z,69.20
2023-05-19T19:30:04.422Z,69.10
2023-05-19T19:32:33.767Z,69.20
2023-05-19T19:35:01.803Z,69.20
2023-05-19T19:37:29.783Z,69.20
2023-05-19T19:39:57.726Z,69.20
2023-05-19T19:42:25.721Z,69.20
2023-05-19T19:44:55.973Z,69.20
2023-05-19T19:47:24.014Z,69.20
2023-05-19T19:49:53.420Z,69.10
2023-05-19T19:52:21.420Z,69.10
2023-05-19T19:54:49.460Z,69.10
2023-05-19T19:57:17.642Z,69.20
2023-05-19T19:59:45.760Z,69.10
2023-05-19T20:02:13.822Z,69.20
2023-05-19T20:04:41.928Z,69.30
2023-05-19T20:07:11.345Z,69.20
2023-05-19T20:09:39.419Z,69.10
2023-05-19T20:12:08.156Z,69.10
2023-05-19T20:14:36.637Z,69.20
2023-05-19T20:17:04.681Z,69.30
2023-05-19T20:19:32.722Z,69.30
2023-05-19T20:22:00.922Z,69.30
2023-05-19T20:24:30.210Z,69.20
2023-05-19T20:26:58.153Z,69.20
2023-05-19T20:29:26.110Z,69.00
2023-05-19T20:31:55.486Z,69.00
2023-05-19T20:34:24.639Z,69.00
2023-05-19T20:36:52.615Z,69.10
2023-05-19T20:39:20.619Z,69.00
2023-05-19T20:41:49.929Z,69.20
2023-05-19T20:44:17.976Z,69.30
2023-05-19T20:46:45.931Z,69.30
2023-05-19T20:49:14.191Z,69.30
2023-05-19T20:51:42.208Z,69.50
2023-05-19T20:54:10.172Z,69.50
2023-05-19T20:56:38.118Z,69.50
2023-05-19T20:59:07.412Z,69.40
2023-05-19T21:01:35.598Z,69.50
2023-05-19T21:04:06.812Z,69.50
2023-05-19T21:06:34.823Z,69.50
2023-05-19T21:09:05.319Z,69.50
2023-05-19T21:11:33.365Z,69.70
2023-05-19T21:14:03.925Z,69.60
2023-05-19T21:16:34.018Z,69.70
2023-05-19T21:19:02.318Z,69.90
2023-05-19T21:21:31.669Z,70.10
2023-05-19T21:23:59.801Z,70.00
2023-05-19T21:26:27.792Z,70.00
2023-05-19T21:28:55.792Z,70.00
2023-05-19T21:31:23.783Z,69.90
2023-05-19T21:33:53.132Z,69.90
2023-05-19T21:36:21.164Z,69.90
2023-05-19T21:38:49.074Z,69.90
2023-05-19T21:41:16.986Z,69.80
2023-05-19T21:43:45.329Z,69.80
2023-05-19T21:46:14.023Z,69.80
2023-05-19T21:48:42.128Z,69.90
2023-05-19T21:51:11.452Z,69.90
2023-05-19T21:53:39.352Z,69.90
2023-05-19T21:56:07.506Z,69.90
2023-05-19T21:58:35.518Z,69.90
2023-05-19T22:01:03.513Z,69.80
2023-05-19T22:03:31.616Z,69.80
2023-05-19T22:05:59.602Z,69.80
2023-05-19T22:08:28.941Z,69.80
2023-05-19T22:10:56.955Z,70.10
2023-05-19T22:13:25.007Z,70.30
2023-05-19T22:15:53.081Z,70.50
2023-05-19T22:18:21.371Z,70.80
2023-05-19T22:20:49.359Z,71.00
2023-05-19T22:23:17.318Z,71.10
2023-05-19T22:25:46.985Z,71.20
2023-05-19T22:28:15.007Z,71.20
2023-05-19T22:30:44.003Z,71.20
2023-05-19T22:33:12.218Z,71.20
2023-05-19T22:35:40.190Z,71.20
2023-05-19T22:38:10.276Z,71.30
2023-05-19T22:40:38.943Z,71.30
2023-05-19T22:43:08.310Z,71.40
2023-05-19T22:45:36.681Z,71.40
2023-05-19T22:48:05.311Z,71.50
2023-05-19T22:50:33.421Z,71.50
2023-05-19T22:53:01.446Z,71.60
2023-05-19T22:55:29.407Z,71.70
2023-05-19T22:57:57.350Z,71.70
2023-05-19T23:00:26.746Z,71.90
2023-05-19T23:02:54.877Z,71.90
2023-05-19T23:05:23.142Z,71.90
2023-05-19T23:07:51.245Z,72.00
2023-05-19T23:10:19.483Z,72.00
2023-05-19T23:12:47.454Z,72.00
2023-05-19T23:15:15.690Z,72.10
2023-05-19T23:17:44.996Z,72.10
2023-05-19T23:20:14.346Z,72.20
2023-05-19T23:22:42.294Z,72.30
2023-05-19T23:25:10.593Z,72.30
2023-05-19T23:27:38.530Z,72.20
2023-05-19T23:30:07.743Z,72.20
2023-05-19T23:32:36.037Z,72.30
2023-05-19T23:35:12.730Z,72.30
2023-05-19T23:37:40.717Z,72.30
2023-05-19T23:40:09.507Z,72.30
2023-05-19T23:42:37.692Z,72.40
2023-05-19T23:45:06.254Z,72.30
2023-05-19T23:47:34.259Z,72.30
2023-05-19T23:50:03.787Z,72.50
2023-05-19T23:52:33.576Z,72.40
2023-05-19T23:55:03.257Z,72.50
2023-05-19T23:57:31.208Z,72.50
2023-05-19T23:59:59.693Z,72.50
